createdAt,value
2019-03-15T00:01:59.028Z,107.02
2019-03-15T00:05:04.724Z,107.06
2019-03-15T00:08:10.141Z,106.55
2019-03-15T00:11:18.235Z,106.01
2019-03-15T00:14:23.545Z,105.86
2019-03-15T00:17:29.964Z,105.71
2019-03-15T00:20:35.291Z,104.73
2019-03-15T00:23:40.574Z,104.33
2019-03-15T00:26:46.265Z,104.08
2019-03-15T00:29:51.590Z,104.35
2019-03-15T00:32:56.855Z,104.61
2019-03-15T00:36:02.181Z,105.19
2019-03-15T00:39:07.694Z,105.40
2019-03-15T00:42:12.988Z,105.28
2019-03-15T00:45:18.323Z,104.98
2019-03-15T00:48:23.560Z,104.48
2019-03-15T00:51:28.794Z,105.10
2019-03-15T00:54:34.128Z,105.36
2019-03-15T00:57:39.485Z,104.67
2019-03-15T01:00:44.881Z,105.61
2019-03-15T01:03:50.353Z,105.54
2019-03-15T01:06:57.189Z,104.78
2019-03-15T01:10:03.968Z,104.48
2019-03-15T01:13:09.178Z,105.52
2019-03-15T01:16:18.350Z,104.21
2019-03-15T01:19:23.621Z,104.81
2019-03-15T01:22:28.920Z,104.51
2019-03-15T01:25:34.185Z,104.13
2019-03-15T01:28:39.545Z,104.13
2019-03-15T01:31:44.996Z,104.53
2019-03-15T01:34:51.329Z,103.88
2019-03-15T01:37:56.619Z,103.33
2019-03-15T01:41:01.816Z,103.45
2019-03-15T01:44:08.084Z,103.49
2019-03-15T01:47:13.323Z,103.04
2019-03-15T01:50:18.653Z,104.01
2019-03-15T01:53:25.563Z,103.95
2019-03-15T01:56:32.248Z,105.25
2019-03-15T01:59:37.486Z,104.96
2019-03-15T02:02:42.766Z,106.31
2019-03-15T02:05:48.044Z,106.60
2019-03-15T02:08:53.307Z,106.64
2019-03-15T02:11:58.630Z,106.51
2019-03-15T02:15:04.211Z,106.11
2019-03-15T02:18:10.493Z,106.93
2019-03-15T02:21:15.799Z,106.71
2019-03-15T02:24:21.165Z,106.32
2019-03-15T02:27:26.525Z,106.60
2019-03-15T02:30:31.754Z,106.25
2019-03-15T02:33:37.026Z,106.58
2019-03-15T02:36:42.365Z,106.31
2019-03-15T02:39:47.608Z,106.68
2019-03-15T02:42:53.250Z,107.51
2019-03-15T02:45:59.674Z,107.85
2019-03-15T02:49:04.931Z,107.99
2019-03-15T02:52:11.752Z,107.01
2019-03-15T02:55:18.171Z,106.91
2019-03-15T02:58:23.455Z,106.90
2019-03-15T03:01:28.761Z,106.91
2019-03-15T03:04:34.050Z,106.70
2019-03-15T03:07:39.321Z,107.29
2019-03-15T03:10:44.696Z,107.80
2019-03-15T03:13:50.229Z,107.38
2019-03-15T03:16:55.526Z,107.37
2019-03-15T03:20:00.849Z,106.07
2019-03-15T03:23:06.200Z,106.50
2019-03-15T03:26:12.665Z,107.20
2019-03-15T03:29:19.941Z,106.44
2019-03-15T03:32:25.633Z,106.98
2019-03-15T03:35:31.010Z,105.42
2019-03-15T03:38:36.394Z,105.42
2019-03-15T03:41:41.644Z,104.20
2019-03-15T03:44:46.939Z,104.52
2019-03-15T03:47:53.936Z,105.13
2019-03-15T03:51:00.249Z,105.03
2019-03-15T03:54:05.813Z,105.74
2019-03-15T03:57:11.086Z,106.22
2019-03-15T04:00:16.424Z,104.32
2019-03-15T04:03:21.930Z,103.88
2019-03-15T04:06:28.068Z,104.43
2019-03-15T04:09:34.308Z,104.87
2019-03-15T04:12:39.650Z,104.56
2019-03-15T04:15:44.930Z,105.49
2019-03-15T04:18:50.349Z,105.13
2019-03-15T04:21:55.604Z,104.74
2019-03-15T04:25:01.119Z,104.88
2019-03-15T04:28:06.400Z,104.80
2019-03-15T04:31:11.755Z,104.49
2019-03-15T04:34:17.074Z,104.87
2019-03-15T04:37:22.916Z,104.85
2019-03-15T04:40:29.563Z,105.63
2019-03-15T04:43:34.849Z,105.08
2019-03-15T04:46:40.256Z,105.21
2019-03-15T04:49:45.568Z,105.22
2019-03-15T04:52:53.349Z,106.10
2019-03-15T04:55:57.923Z,105.61
2019-03-15T04:59:03.275Z,105.74
2019-03-15T05:02:08.686Z,105.58
2019-03-15T05:05:14.070Z,105.65
2019-03-15T05:08:19.325Z,105.66
2019-03-15T05:11:24.658Z,105.93
2019-03-15T05:14:30.030Z,106.41
2019-03-15T05:17:36.054Z,105.97
2019-03-15T05:20:41.544Z,105.96
2019-03-15T05:23:46.837Z,106.25
2019-03-15T05:26:52.150Z,106.40
2019-03-15T05:29:57.415Z,106.33
2019-03-15T05:33:02.717Z,106.01
2019-03-15T05:36:08.054Z,106.59
2019-03-15T05:39:13.404Z,106.55
2019-03-15T05:42:18.753Z,106.06
2019-03-15T05:45:24.054Z,105.64
2019-03-15T05:48:29.423Z,105.37
2019-03-15T05:51:37.934Z,105.19
2019-03-15T05:54:43.238Z,105.21
2019-03-15T05:57:48.517Z,104.68
2019-03-15T06:00:53.838Z,105.02
2019-03-15T06:03:59.074Z,104.89
2019-03-15T06:07:04.334Z,104.12
2019-03-15T06:10:09.993Z,104.52
2019-03-15T06:13:15.284Z,104.58
2019-03-15T06:16:20.618Z,104.23
2019-03-15T06:19:25.872Z,104.03
2019-03-15T06:22:31.127Z,103.37
2019-03-15T06:25:36.396Z,103.25
2019-03-15T06:28:41.720Z,103.42
2019-03-15T06:31:46.967Z,103.35
2019-03-15T06:34:52.252Z,101.05
2019-03-15T06:37:57.527Z,101.36
2019-03-15T06:41:04.248Z,101.60
2019-03-15T06:44:12.038Z,101.45
2019-03-15T06:47:17.260Z,101.57
2019-03-15T06:50:25.583Z,101.31
2019-03-15T06:53:30.809Z,100.94
2019-03-15T06:56:37.134Z,100.71
2019-03-15T06:59:42.339Z,100.85
2019-03-15T07:02:47.614Z,99.50
2019-03-15T07:05:52.863Z,100.31
2019-03-15T07:08:58.089Z,99.85
2019-03-15T07:12:09.273Z,100.05
2019-03-15T07:15:10.559Z,100.50
2019-03-15T07:18:18.632Z,100.27
2019-03-15T07:21:22.962Z,100.79
2019-03-15T07:24:28.242Z,100.69
2019-03-15T07:27:33.679Z,100.39
2019-03-15T07:30:42.193Z,101.30
2019-03-15T07:33:47.415Z,102.20
2019-03-15T07:36:55.173Z,101.83
2019-03-15T07:39:59.623Z,102.75
2019-03-15T07:43:05.458Z,103.59
2019-03-15T07:46:10.922Z,104.35
2019-03-15T07:49:16.228Z,104.39
2019-03-15T07:52:21.517Z,105.23
2019-03-15T07:55:26.745Z,105.14
2019-03-15T07:58:32.004Z,104.74
2019-03-15T08:01:52.572Z,105.74
2019-03-15T08:04:56.201Z,107.32
2019-03-15T08:08:01.469Z,106.88
2019-03-15T08:11:06.766Z,106.61
2019-03-15T08:14:12.051Z,106.04
2019-03-15T08:17:17.330Z,105.54
2019-03-15T08:20:22.607Z,106.06
2019-03-15T08:23:27.902Z,105.52
2019-03-15T08:26:33.138Z,106.06
2019-03-15T08:29:38.534Z,105.99
2019-03-15T08:32:44.284Z,105.58
2019-03-15T08:35:49.860Z,106.01
2019-03-15T08:38:58.057Z,106.62
2019-03-15T08:42:03.440Z,105.87
2019-03-15T08:45:11.352Z,106.61
2019-03-15T08:48:16.603Z,105.78
2019-03-15T08:51:21.894Z,105.80
2019-03-15T08:54:27.196Z,105.52
2019-03-15T08:57:32.493Z,104.77
2019-03-15T09:00:37.852Z,104.90
2019-03-15T09:03:43.267Z,104.28
2019-03-15T09:06:48.553Z,102.03
2019-03-15T09:09:53.827Z,103.63
2019-03-15T09:12:59.139Z,102.86
2019-03-15T09:16:04.402Z,104.95
2019-03-15T09:19:09.686Z,106.24
2019-03-15T09:22:14.969Z,104.93
2019-03-15T09:25:21.090Z,106.01
2019-03-15T09:28:27.077Z,105.10
2019-03-15T09:31:46.581Z,105.49
2019-03-15T09:34:39.507Z,105.85
2019-03-15T09:37:47.914Z,106.13
2019-03-15T09:40:53.382Z,106.97
2019-03-15T09:43:58.658Z,106.48
2019-03-15T09:47:03.931Z,107.30
2019-03-15T09:50:21.165Z,107.38
2019-03-15T09:53:17.615Z,107.65
2019-03-15T09:56:22.878Z,107.43
2019-03-15T09:59:29.133Z,106.56
2019-03-15T10:02:34.402Z,107.74
2019-03-15T10:05:39.722Z,108.70
2019-03-15T10:08:44.987Z,109.24
2019-03-15T10:11:50.247Z,109.59
2019-03-15T10:14:55.477Z,110.44
2019-03-15T10:18:00.904Z,110.68
2019-03-15T10:21:09.117Z,111.60
2019-03-15T10:24:15.735Z,111.04
2019-03-15T10:27:20.172Z,110.85
2019-03-15T10:30:25.423Z,111.02
2019-03-15T10:33:30.776Z,111.80
2019-03-15T10:36:36.077Z,112.18
2019-03-15T10:39:41.318Z,112.91
2019-03-15T10:42:46.591Z,113.13
2019-03-15T10:45:51.901Z,113.23
2019-03-15T10:48:57.182Z,112.72
2019-03-15T10:52:02.437Z,112.71
2019-03-15T10:55:07.885Z,112.48
2019-03-15T10:58:13.150Z,112.34
2019-03-15T11:01:18.377Z,112.93
2019-03-15T11:04:23.643Z,113.20
2019-03-15T11:07:29.843Z,113.29
2019-03-15T11:10:35.203Z,113.59
2019-03-15T11:13:40.447Z,113.07
2019-03-15T11:16:46.728Z,112.49
2019-03-15T11:19:51.948Z,113.46
2019-03-15T11:23:11.763Z,114.27
2019-03-15T11:26:17.125Z,114.66
2019-03-15T11:29:22.440Z,114.00
2019-03-15T11:32:27.676Z,114.22
2019-03-15T11:35:33.083Z,114.90
2019-03-15T11:38:38.357Z,115.30
2019-03-15T11:41:43.652Z,115.14
2019-03-15T11:44:49.025Z,115.19
2019-03-15T11:48:03.397Z,115.14
2019-03-15T11:51:03.515Z,115.12
2019-03-15T11:54:08.847Z,115.09
2019-03-15T11:57:14.106Z,115.03
2019-03-15T12:00:19.428Z,114.74
2019-03-15T12:03:24.714Z,114.86
2019-03-15T12:06:30.046Z,115.36
2019-03-15T12:09:35.379Z,115.26
2019-03-15T12:12:40.707Z,114.88
2019-03-15T12:15:45.961Z,114.84
2019-03-15T12:18:51.310Z,113.74
2019-03-15T12:22:06.113Z,113.06
2019-03-15T12:25:03.898Z,112.30
2019-03-15T12:28:09.167Z,110.98
2019-03-15T12:31:14.465Z,110.55
2019-03-15T12:34:19.783Z,109.81
2019-03-15T12:37:27.884Z,108.68
2019-03-15T12:40:32.117Z,108.73
2019-03-15T12:43:37.423Z,107.77
2019-03-15T12:46:42.712Z,107.09
2019-03-15T12:49:48.106Z,106.82
2019-03-15T12:52:53.433Z,107.56
2019-03-15T12:55:58.752Z,107.05
2019-03-15T12:59:04.152Z,107.41
2019-03-15T13:02:09.482Z,108.08
2019-03-15T13:05:14.952Z,107.19
2019-03-15T13:08:20.235Z,107.06
2019-03-15T13:11:25.518Z,107.50
2019-03-15T13:14:32.876Z,110.81
2019-03-15T13:17:38.144Z,109.23
2019-03-15T13:20:43.411Z,110.76
2019-03-15T13:23:48.711Z,109.64
2019-03-15T13:27:06.649Z,106.54
2019-03-15T13:30:00.973Z,103.92
2019-03-15T13:33:19.174Z,100.37
2019-03-15T13:36:13.358Z,99.98
2019-03-15T13:39:18.627Z,100.56
2019-03-15T13:42:24.015Z,97.68
2019-03-15T13:45:29.248Z,98.79
2019-03-15T13:48:34.495Z,96.15
2019-03-15T13:51:39.727Z,95.83
2019-03-15T13:54:44.972Z,96.17
2019-03-15T13:57:50.219Z,97.92
2019-03-15T14:00:55.477Z,98.18
2019-03-15T14:04:00.731Z,98.40
2019-03-15T14:07:06.013Z,98.78
2019-03-15T14:10:11.658Z,98.79
2019-03-15T14:13:16.990Z,104.64
2019-03-15T14:16:25.893Z,108.14
2019-03-15T14:19:32.388Z,110.89
2019-03-15T14:22:37.698Z,109.29
2019-03-15T14:25:43.200Z,108.07
2019-03-15T14:28:51.261Z,106.21
2019-03-15T14:31:56.536Z,106.26
2019-03-15T14:35:02.942Z,105.48
2019-03-15T14:38:08.456Z,108.09
2019-03-15T14:41:16.068Z,107.85
2019-03-15T14:44:21.633Z,106.42
2019-03-15T14:47:26.974Z,105.97
2019-03-15T14:50:32.345Z,104.78
2019-03-15T14:53:37.571Z,104.39
2019-03-15T14:56:43.818Z,104.00
2019-03-15T14:59:49.056Z,105.59
2019-03-15T15:02:54.387Z,102.84
2019-03-15T15:05:59.669Z,103.29
2019-03-15T15:09:06.685Z,104.40
2019-03-15T15:12:13.517Z,105.07
2019-03-15T15:15:20.368Z,100.95
2019-03-15T15:18:25.654Z,103.45
2019-03-15T15:21:31.030Z,103.54
2019-03-15T15:24:36.473Z,99.49
2019-03-15T15:27:41.905Z,100.23
2019-03-15T15:30:48.157Z,98.88
2019-03-15T15:33:53.466Z,97.32
2019-03-15T15:36:58.796Z,99.35
2019-03-15T15:40:05.181Z,99.63
2019-03-15T15:43:10.641Z,93.69
2019-03-15T15:46:15.922Z,95.63
2019-03-15T15:49:21.192Z,94.96
2019-03-15T15:52:26.651Z,92.00
2019-03-15T15:55:31.976Z,91.48
2019-03-15T15:58:37.316Z,92.43
2019-03-15T16:01:42.647Z,88.94
2019-03-15T16:04:48.027Z,90.73
2019-03-15T16:07:57.923Z,92.86
2019-03-15T16:11:00.502Z,94.95
2019-03-15T16:14:08.870Z,92.41
2019-03-15T16:17:14.227Z,92.64
2019-03-15T16:20:19.707Z,87.24
2019-03-15T16:23:24.955Z,82.54
2019-03-15T16:26:30.203Z,83.84
2019-03-15T16:29:35.499Z,82.67
2019-03-15T16:32:40.847Z,83.92
2019-03-15T16:35:46.176Z,83.60
2019-03-15T16:38:51.492Z,84.27
2019-03-15T16:41:56.845Z,86.44
2019-03-15T16:45:02.155Z,86.77
2019-03-15T16:48:07.429Z,85.16
2019-03-15T16:51:19.406Z,81.33
2019-03-15T16:54:19.780Z,80.32
2019-03-15T16:57:25.126Z,81.42
2019-03-15T17:00:30.464Z,79.59
2019-03-15T17:03:35.806Z,79.95
2019-03-15T17:06:42.167Z,77.64
2019-03-15T17:09:47.458Z,79.19
2019-03-15T17:12:56.038Z,76.81
2019-03-15T17:16:01.403Z,78.32
2019-03-15T17:19:07.802Z,76.73
2019-03-15T17:22:13.126Z,75.96
2019-03-15T17:25:18.414Z,75.56
2019-03-15T17:28:23.669Z,74.89
2019-03-15T17:31:28.930Z,72.62
2019-03-15T17:34:37.364Z,75.07
2019-03-15T17:37:42.658Z,72.26
2019-03-15T17:40:47.971Z,70.73
2019-03-15T17:43:53.286Z,71.79
2019-03-15T17:47:00.149Z,71.16
2019-03-15T17:50:05.970Z,73.48
2019-03-15T17:53:12.254Z,72.84
2019-03-15T17:56:17.704Z,75.23
2019-03-15T17:59:23.035Z,73.74
2019-03-15T18:02:28.267Z,74.71
2019-03-15T18:05:33.625Z,76.05
2019-03-15T18:08:38.939Z,77.47
2019-03-15T18:11:44.230Z,75.65
2019-03-15T18:14:49.591Z,77.10
2019-03-15T18:17:54.865Z,77.11
2019-03-15T18:21:00.169Z,76.17
2019-03-15T18:24:06.434Z,77.03
2019-03-15T18:27:11.789Z,76.90
2019-03-15T18:30:17.126Z,75.78
2019-03-15T18:33:22.371Z,76.69
2019-03-15T18:36:27.628Z,77.81
2019-03-15T18:39:36.531Z,75.75
2019-03-15T18:42:42.025Z,76.38
2019-03-15T18:45:47.512Z,76.10
2019-03-15T18:48:52.791Z,75.90
2019-03-15T18:51:58.131Z,75.69
2019-03-15T18:55:03.483Z,76.23
2019-03-15T18:58:08.811Z,75.07
2019-03-15T19:01:14.095Z,74.64
2019-03-15T19:04:19.377Z,74.27
2019-03-15T19:07:24.664Z,74.82
2019-03-15T19:10:30.024Z,74.59
2019-03-15T19:13:35.269Z,74.36
2019-03-15T19:16:40.612Z,76.58
2019-03-15T19:19:45.952Z,73.55
2019-03-15T19:22:51.219Z,73.84
2019-03-15T19:25:56.585Z,74.74
2019-03-15T19:29:01.891Z,73.89
2019-03-15T19:32:07.170Z,74.70
2019-03-15T19:35:12.434Z,75.31
2019-03-15T19:38:17.735Z,73.75
2019-03-15T19:41:23.015Z,73.76
2019-03-15T19:44:28.384Z,74.62
2019-03-15T19:47:33.668Z,74.35
2019-03-15T19:50:39.003Z,74.23
2019-03-15T19:53:45.360Z,74.88
2019-03-15T19:56:52.808Z,74.94
2019-03-15T20:00:07.671Z,74.49
2019-03-15T20:03:06.051Z,74.84
2019-03-15T20:06:11.615Z,76.96
2019-03-15T20:09:16.940Z,78.13
2019-03-15T20:12:22.229Z,76.96
2019-03-15T20:15:27.529Z,76.09
2019-03-15T20:18:32.968Z,78.43
2019-03-15T20:21:39.325Z,78.19
2019-03-15T20:24:44.661Z,78.34
2019-03-15T20:27:50.139Z,77.23
2019-03-15T20:30:55.454Z,78.76
2019-03-15T20:34:00.858Z,78.16
2019-03-15T20:37:11.058Z,77.97
2019-03-15T20:40:13.384Z,77.85
2019-03-15T20:43:21.715Z,79.60
2019-03-15T20:46:35.747Z,79.67
2019-03-15T20:49:36.496Z,81.32
2019-03-15T20:52:41.106Z,81.81
2019-03-15T20:55:47.080Z,81.10
2019-03-15T20:58:52.702Z,81.47
2019-03-15T21:01:58.000Z,82.47
2019-03-15T21:05:07.781Z,85.22
2019-03-15T21:08:13.217Z,84.55
2019-03-15T21:11:21.485Z,85.40
2019-03-15T21:14:26.775Z,83.21
2019-03-15T21:17:32.253Z,85.62
2019-03-15T21:20:37.488Z,85.07
2019-03-15T21:23:42.892Z,82.24
2019-03-15T21:26:48.186Z,83.04
2019-03-15T21:29:53.539Z,82.27
2019-03-15T21:32:58.791Z,81.96
2019-03-15T21:36:04.171Z,82.22
2019-03-15T21:39:09.977Z,80.04
2019-03-15T21:42:15.542Z,80.78
2019-03-15T21:45:25.644Z,79.59
2019-03-15T21:48:27.834Z,79.76
2019-03-15T21:51:34.051Z,80.66
2019-03-15T21:54:39.373Z,80.39
2019-03-15T21:57:46.624Z,81.64
2019-03-15T22:01:01.654Z,80.74
2019-03-15T22:03:58.640Z,80.53
2019-03-15T22:07:03.948Z,79.76
2019-03-15T22:10:09.964Z,81.28
2019-03-15T22:13:15.275Z,81.49
2019-03-15T22:16:20.543Z,82.29
2019-03-15T22:19:26.909Z,80.73
2019-03-15T22:22:32.214Z,80.65
2019-03-15T22:25:37.509Z,80.93
2019-03-15T22:28:42.824Z,82.60
2019-03-15T22:31:48.103Z,83.29
2019-03-15T22:34:54.931Z,84.37
2019-03-15T22:38:00.186Z,83.87
2019-03-15T22:41:05.813Z,84.63
2019-03-15T22:44:11.543Z,84.76
2019-03-15T22:47:16.805Z,84.89
2019-03-15T22:50:23.709Z,86.09
2019-03-15T22:53:29.155Z,86.22
2019-03-15T22:56:36.789Z,85.49
2019-03-15T22:59:42.066Z,86.56
2019-03-15T23:02:47.682Z,88.70
2019-03-15T23:05:53.048Z,88.01
2019-03-15T23:08:58.348Z,88.22
2019-03-15T23:12:03.768Z,87.27
2019-03-15T23:15:09.259Z,88.13
2019-03-15T23:18:14.623Z,87.51
2019-03-15T23:21:19.894Z,89.04
2019-03-15T23:24:25.260Z,87.84
2019-03-15T23:27:30.561Z,88.28
2019-03-15T23:30:35.898Z,88.70
2019-03-15T23:33:43.490Z,89.59
2019-03-15T23:36:48.790Z,90.08
2019-03-15T23:39:54.019Z,89.46
2019-03-15T23:42:59.400Z,90.34
2019-03-15T23:46:06.268Z,89.17
2019-03-15T23:49:13.919Z,88.84
2019-03-15T23:52:19.190Z,88.46
2019-03-15T23:55:24.523Z,88.68
2019-03-15T23:58:29.809Z,90.00
